GMFM

Details ICAO GMFM (MEK)
Name BASSATINE
Region Morocco
Timezone Africa/Casablanca (UTC+0.0)
Plans Departing 3
Arriving 3
Stats Elevation 1,890 ft / 576 m (AMSL)
Location 33.878848° -5.515022°
Runways 2
Magnetic Variation 1.140° W
Sunrise 2018-05-23 05:17:26 UTC / 2018-05-23 05:17:26 Local
Sunset 2018-05-23 19:23:03 UTC / 2018-05-23 19:23:03 Local
Advertisement - Login to hide

Runways

ID Width Length Bearing (true) Bearing (mag) Surface Threshold Offset Overrun Length
08 164 ft / 50 m 6,446 ft / 1,965 m 78.51° 79.65° Asphalt 0 ft / 0 m 0 ft / 0 m
09 164 ft / 50 m 9,272 ft / 2,826 m 83.84° 84.98° Asphalt 495 ft / 151 m 250 ft / 76 m
26 164 ft / 50 m 6,446 ft / 1,965 m 258.52° 259.66° Asphalt 0 ft / 0 m 0 ft / 0 m
27 164 ft / 50 m 9,272 ft / 2,826 m 263.85° 264.99° Asphalt 0 ft / 0 m 0 ft / 0 m

Map

Weather


0- 5 10 15 20 25 30 35+ Temperature / ° C

Clouds and Precipitation
Forecast for 2018-05-23 18:00 UTC. Updated 2 hours ago

Ground ~20,000 ft ~40,000 ft Winds

METAR

GMFM 231900Z 29002KT 4000 BR BKN010 SCT016 17/15 Q1016 BECMG 5000 SCT010 BKN016

TAF

TAF GMFM 231700Z 2318/2424 30004KT 4000 BR OVC010 BECMG 2320/2324 -TSRA BKN010 FEW026CB TEMPO 2402/2410 0800 FG OVC010 BECMG 2412/2414 32010KT 3000 BR BRCMG 2416/2420 -RA
Warning: Do not use this data for real-world aviation or navigation. No guarantee of current accuracy is given.